Time;durP1;ratioP1;P1;durP2;ratioP2;P2;SDS_P1;SDS_P2;PMS_P1;PMS_P2;Temp;Humidity;BMP_temperature;BMP_pressure;BME280_temperature;BME280_humidity;BME280_pressure;Samples;Min_cycle;Max_cycle;Signal;HPM_P1;HPM_P2
2021/12/26 00:00:24;;;;;;;3.00;2.00;;;-10.50;96.30;;;;;;4863180;29;20599;-80
2021/12/26 00:02:50;;;;;;;3.10;1.90;;;-10.20;96.30;;;;;;4862367;29;20415;-80
2021/12/26 00:05:17;;;;;;;5.90;2.60;;;-10.00;96.30;;;;;;4864812;29;20411;-80
2021/12/26 00:07:43;;;;;;;8.73;2.07;;;-9.90;96.30;;;;;;4866399;29;20423;-79
2021/12/26 00:10:11;;;;;;;2.47;1.50;;;-9.80;96.30;;;;;;4866448;29;20417;-80
2021/12/26 00:12:37;;;;;;;1.60;1.13;;;-9.60;96.30;;;;;;4867936;29;20439;-80
2021/12/26 00:15:04;;;;;;;2.33;1.03;;;-9.60;96.30;;;;;;4868166;29;20421;-80
2021/12/26 00:17:29;;;;;;;2.93;1.97;;;-9.50;96.30;;;;;;4865402;29;20182;-80
2021/12/26 00:19:55;;;;;;;8.60;2.00;;;-9.70;96.30;;;;;;4865528;29;20848;-80
2021/12/26 00:22:20;;;;;;;6.43;2.37;;;-9.80;96.30;;;;;;4865679;29;20198;-80
2021/12/26 00:24:46;;;;;;;7.50;2.47;;;-9.70;96.30;;;;;;4867597;29;20261;-80
2021/12/26 00:27:13;;;;;;;3.40;1.70;;;-9.80;96.30;;;;;;4866202;29;20178;-80
2021/12/26 00:29:38;;;;;;;2.50;1.57;;;-9.60;96.30;;;;;;4866079;29;20592;-80
2021/12/26 00:32:06;;;;;;;4.90;2.13;;;-9.80;96.30;;;;;;4865607;29;20439;-80
2021/12/26 00:34:32;;;;;;;3.67;1.80;;;-9.60;96.30;;;;;;4865159;29;20554;-80
2021/12/26 00:36:58;;;;;;;5.97;3.00;;;-9.40;96.30;;;;;;4865758;29;20425;-80
2021/12/26 00:39:24;;;;;;;11.30;3.90;;;-9.30;96.30;;;;;;4865369;29;20459;-80
2021/12/26 00:41:49;;;;;;;16.47;5.43;;;-9.50;96.30;;;;;;4866574;29;20218;-79
2021/12/26 00:44:15;;;;;;;7.53;3.90;;;-9.40;96.30;;;;;;4866305;29;20299;-79
2021/12/26 00:46:40;;;;;;;9.00;3.27;;;-9.30;96.30;;;;;;4865163;29;20647;-80
2021/12/26 00:49:06;;;;;;;12.10;5.20;;;-9.40;96.30;;;;;;4866969;29;20187;-80
2021/12/26 00:51:32;;;;;;;10.40;3.97;;;-9.50;96.30;;;;;;4866433;29;20206;-80
2021/12/26 00:53:57;;;;;;;13.93;4.83;;;-9.50;96.30;;;;;;4865028;29;20431;-79
2021/12/26 00:56:23;;;;;;;31.30;9.20;;;-9.50;96.30;;;;;;4864943;29;20590;-80
2021/12/26 00:58:49;;;;;;;9.97;2.63;;;-9.40;96.30;;;;;;4866659;29;20183;-80
2021/12/26 05:02:04;;;;;;;6.73;3.20;;;-7.10;96.30;;;;;;5118959;23;20621;-81
2021/12/26 05:04:30;;;;;;;3.90;2.80;;;-7.00;96.30;;;;;;4903987;29;20476;-80
2021/12/26 05:06:55;;;;;;;4.43;2.40;;;-7.10;96.30;;;;;;4906563;29;20488;-80
2021/12/26 05:09:21;;;;;;;4.50;3.33;;;-7.00;96.30;;;;;;4906912;29;20173;-80
2021/12/26 05:11:46;;;;;;;8.67;6.43;;;-7.10;96.30;;;;;;4905806;29;20330;-80
2021/12/26 05:14:12;;;;;;;3.70;1.77;;;-7.10;96.30;;;;;;4904150;29;20188;-79
2021/12/26 05:16:37;;;;;;;5.77;3.27;;;-7.10;96.30;;;;;;4902480;29;20185;-80
2021/12/26 05:19:03;;;;;;;6.47;3.40;;;-7.00;96.30;;;;;;4902531;29;20193;-79
2021/12/26 05:21:28;;;;;;;4.20;2.50;;;-7.10;96.30;;;;;;4903675;29;20221;-79
2021/12/26 05:23:53;;;;;;;6.80;2.63;;;-7.20;96.30;;;;;;4909478;29;20189;-79
2021/12/26 05:26:19;;;;;;;4.60;2.50;;;-7.10;96.30;;;;;;4909125;29;20185;-80
2021/12/26 05:28:44;;;;;;;4.37;2.40;;;-7.10;96.30;;;;;;4910997;29;20231;-79
2021/12/26 05:31:10;;;;;;;6.53;2.60;;;-7.00;96.30;;;;;;4910043;29;20211;-79
2021/12/26 05:33:35;;;;;;;2.30;2.10;;;-7.00;96.30;;;;;;4905838;29;20185;-80
2021/12/26 05:36:01;;;;;;;6.17;1.50;;;-7.10;96.30;;;;;;4886376;29;20189;-79
2021/12/26 05:38:27;;;;;;;2.73;2.00;;;-7.10;96.30;;;;;;4881200;29;20224;-80
2021/12/26 05:40:54;;;;;;;2.83;2.07;;;-7.10;96.30;;;;;;4881102;29;20240;-80
2021/12/26 05:43:20;;;;;;;2.10;1.90;;;-7.00;96.30;;;;;;4880729;29;20430;-80
2021/12/26 05:45:45;;;;;;;4.70;1.73;;;-7.10;96.30;;;;;;4880517;29;20421;-80
2021/12/26 05:48:11;;;;;;;2.60;1.20;;;-7.10;96.30;;;;;;4881363;29;20665;-80
2021/12/26 05:50:36;;;;;;;2.40;1.40;;;-7.10;96.30;;;;;;4880653;29;20333;-80
2021/12/26 05:53:02;;;;;;;4.90;1.57;;;-7.00;96.30;;;;;;4880824;29;20681;-80
2021/12/26 05:55:27;;;;;;;3.17;1.93;;;-7.10;96.30;;;;;;4882276;29;20182;-80
2021/12/26 05:57:53;;;;;;;3.83;2.17;;;-7.10;96.30;;;;;;4880824;29;20189;-79
2021/12/26 06:00:20;;;;;;;3.10;1.50;;;-7.20;96.30;;;;;;4877784;29;20205;-79
2021/12/26 06:02:46;;;;;;;3.73;1.80;;;-7.20;96.30;;;;;;4878522;29;20253;-79
2021/12/26 06:05:12;;;;;;;2.90;1.90;;;-7.20;96.30;;;;;;4878168;29;20865;-79
2021/12/26 06:07:38;;;;;;;2.00;1.50;;;-7.20;96.30;;;;;;4878225;29;20505;-80
2021/12/26 06:10:07;;;;;;;2.03;1.30;;;-7.30;96.30;;;;;;4878667;29;20186;-80
2021/12/26 06:12:33;;;;;;;2.50;1.50;;;-7.20;96.30;;;;;;4879292;29;20233;-79
2021/12/26 06:14:59;;;;;;;3.63;1.53;;;-7.10;96.30;;;;;;4878594;29;20771;-80
2021/12/26 06:17:24;;;;;;;1.70;1.10;;;-7.20;96.30;;;;;;4880002;29;20430;-80
2021/12/26 06:19:50;;;;;;;2.47;1.80;;;-7.20;96.30;;;;;;4878828;29;20283;-79
2021/12/26 06:22:16;;;;;;;5.20;1.67;;;-7.20;96.30;;;;;;4879406;29;20274;-79
2021/12/26 06:24:42;;;;;;;2.53;1.50;;;-7.10;96.30;;;;;;4879518;29;20272;-79
2021/12/26 06:27:07;;;;;;;4.53;1.90;;;-7.20;96.30;;;;;;4878398;29;21011;-80
2021/12/26 06:29:33;;;;;;;2.33;2.00;;;-7.10;96.30;;;;;;4878937;29;20423;-79
2021/12/26 06:31:58;;;;;;;7.07;2.50;;;-7.00;96.30;;;;;;4879287;29;20189;-79
2021/12/26 06:34:24;;;;;;;2.00;1.23;;;-7.00;96.30;;;;;;4879222;29;20185;-79
2021/12/26 06:36:49;;;;;;;3.57;1.30;;;-7.00;96.30;;;;;;4878935;29;20321;-79
2021/12/26 06:39:15;;;;;;;3.23;1.70;;;-7.00;96.30;;;;;;4877794;29;20182;-79
2021/12/26 06:41:40;;;;;;;11.10;3.93;;;-7.10;96.30;;;;;;4877685;29;20217;-78
2021/12/26 06:44:07;;;;;;;4.93;2.37;;;-7.20;96.30;;;;;;4878156;29;20186;-79
2021/12/26 06:46:34;;;;;;;3.70;2.57;;;-7.20;96.30;;;;;;4878792;29;20653;-78
2021/12/26 06:49:00;;;;;;;2.50;1.80;;;-7.20;96.30;;;;;;4877391;29;20513;-79
2021/12/26 06:51:25;;;;;;;3.97;3.40;;;-7.00;96.30;;;;;;4887584;29;20536;-78
2021/12/26 06:53:51;;;;;;;4.83;2.47;;;-7.00;96.30;;;;;;4883331;29;20192;-78
2021/12/26 06:56:16;;;;;;;2.23;1.70;;;-7.00;96.30;;;;;;4862387;29;20190;-78
2021/12/26 06:58:42;;;;;;;4.17;1.60;;;-7.00;96.30;;;;;;4889224;29;20276;-78
2021/12/26 07:01:10;;;;;;;3.40;2.10;;;-7.10;96.30;;;;;;4878862;29;20217;-78
2021/12/26 07:03:36;;;;;;;1.97;1.53;;;-7.10;96.30;;;;;;4877070;29;20192;-78
2021/12/26 07:06:02;;;;;;;2.23;1.63;;;-7.00;96.30;;;;;;4878011;29;20801;-77
2021/12/26 07:08:27;;;;;;;3.33;1.47;;;-7.00;96.30;;;;;;4877159;29;21002;-78
2021/12/26 07:10:53;;;;;;;4.20;1.73;;;-7.00;96.30;;;;;;4876933;29;20267;-78
2021/12/26 07:13:18;;;;;;;4.27;2.17;;;-7.00;96.30;;;;;;4878369;29;20209;-78
2021/12/26 07:15:44;;;;;;;3.07;1.77;;;-7.00;96.30;;;;;;4876879;29;20213;-78
2021/12/26 07:18:09;;;;;;;4.13;2.17;;;-7.00;96.30;;;;;;4878343;29;20212;-78
2021/12/26 07:20:35;;;;;;;1.77;1.40;;;-7.00;96.30;;;;;;4878362;29;20709;-78
2021/12/26 07:23:01;;;;;;;3.60;2.50;;;-7.00;96.30;;;;;;4877345;29;20277;-78
2021/12/26 07:25:26;;;;;;;1.80;1.13;;;-7.00;96.30;;;;;;4878259;29;20186;-76
2021/12/26 07:27:52;;;;;;;3.23;2.40;;;-7.00;96.30;;;;;;4878330;29;20201;-78
2021/12/26 07:30:17;;;;;;;2.27;1.63;;;-7.00;96.30;;;;;;4877224;29;20695;-79
2021/12/26 07:32:43;;;;;;;3.47;1.80;;;-7.00;96.30;;;;;;4878346;29;20212;-79
2021/12/26 07:35:09;;;;;;;2.00;1.70;;;-7.00;96.30;;;;;;4885990;29;20177;-78
2021/12/26 07:37:34;;;;;;;3.40;1.30;;;-7.00;96.30;;;;;;4892890;29;20184;-79
2021/12/26 07:40:00;;;;;;;1.40;1.30;;;-7.00;96.30;;;;;;4877881;29;20493;-78
2021/12/26 07:42:25;;;;;;;2.10;1.80;;;-7.00;96.30;;;;;;4880604;29;20345;-78
2021/12/26 07:44:51;;;;;;;5.53;1.50;;;-7.00;96.30;;;;;;4876374;29;20193;-78
2021/12/26 07:47:16;;;;;;;2.77;1.43;;;-6.90;96.30;;;;;;4883965;29;20184;-79
2021/12/26 07:49:42;;;;;;;2.10;1.50;;;-6.90;96.30;;;;;;4894269;29;20189;-78
2021/12/26 07:52:16;;;;;;;3.90;1.97;;;-6.90;96.30;;;;;;4877020;29;20670;-78
2021/12/26 07:54:42;;;;;;;5.17;2.60;;;-6.90;96.30;;;;;;4877245;29;20612;-77
2021/12/26 07:57:08;;;;;;;2.57;1.43;;;-6.80;96.30;;;;;;4877316;29;20506;-79
2021/12/26 07:59:35;;;;;;;4.10;2.57;;;-6.80;96.30;;;;;;4878167;29;20572;-78
2021/12/26 08:02:00;;;;;;;6.73;2.23;;;-6.80;96.30;;;;;;4876633;29;20252;-78
2021/12/26 08:04:26;;;;;;;3.53;1.80;;;-6.80;96.30;;;;;;4877957;29;20442;-77
2021/12/26 08:06:53;;;;;;;5.53;3.90;;;-6.70;96.30;;;;;;4876620;29;20478;-77
2021/12/26 08:09:19;;;;;;;2.27;1.40;;;-6.70;96.30;;;;;;4877956;29;20205;-78
2021/12/26 08:11:44;;;;;;;6.87;2.40;;;-6.70;96.30;;;;;;4876683;29;20876;-78
2021/12/26 08:14:09;;;;;;;4.87;1.93;;;-6.70;96.30;;;;;;4876670;29;20426;-79
2021/12/26 08:16:35;;;;;;;3.80;2.10;;;-6.60;96.30;;;;;;4876543;29;20174;-77
2021/12/26 08:19:02;;;;;;;1.30;1.20;;;-6.50;96.30;;;;;;4877963;29;20189;-78
2021/12/26 08:21:28;;;;;;;5.90;1.90;;;-6.50;96.30;;;;;;4877751;29;20713;-79
2021/12/26 08:23:54;;;;;;;2.40;1.03;;;-6.40;96.30;;;;;;4877896;29;20442;-80
2021/12/26 08:26:19;;;;;;;2.80;1.10;;;-6.30;96.30;;;;;;4876740;29;20190;-76
2021/12/26 08:28:45;;;;;;;3.10;2.03;;;-6.10;96.30;;;;;;4881017;29;20257;-77
2021/12/26 08:31:10;;;;;;;2.83;1.63;;;-6.10;96.30;;;;;;4880932;29;20194;-78
2021/12/26 08:33:36;;;;;;;3.37;1.77;;;-6.10;96.30;;;;;;4881289;29;20527;-78
2021/12/26 08:36:04;;;;;;;2.70;1.63;;;-6.00;96.30;;;;;;4885888;29;20188;-76
2021/12/26 08:38:29;;;;;;;3.33;2.27;;;-6.00;96.30;;;;;;4885445;29;20197;-76
2021/12/26 08:40:56;;;;;;;3.53;1.57;;;-6.00;96.30;;;;;;4879387;29;20466;-77
2021/12/26 08:43:22;;;;;;;2.87;1.77;;;-6.00;96.30;;;;;;4869096;29;20198;-76
2021/12/26 08:45:48;;;;;;;3.37;2.07;;;-6.00;96.30;;;;;;4860371;29;20423;-76
2021/12/26 08:48:15;;;;;;;7.07;4.63;;;-5.90;96.30;;;;;;4862400;29;20182;-76
2021/12/26 08:50:44;;;;;;;3.17;2.10;;;-5.80;96.30;;;;;;4862318;29;20450;-76
2021/12/26 08:53:09;;;;;;;1.70;1.20;;;-5.80;96.30;;;;;;4862476;29;20453;-78
2021/12/26 08:55:35;;;;;;;3.83;2.30;;;-5.70;96.30;;;;;;4881093;29;20461;-76
2021/12/26 08:58:01;;;;;;;3.23;2.27;;;-5.70;96.30;;;;;;4878898;29;20190;-76
2021/12/26 09:00:27;;;;;;;4.30;2.40;;;-5.70;96.30;;;;;;4873061;29;20178;-76
2021/12/26 09:02:53;;;;;;;2.70;1.50;;;-5.60;96.30;;;;;;4861680;29;20471;-76
2021/12/26 09:05:19;;;;;;;9.20;2.30;;;-5.50;96.30;;;;;;4861825;29;20525;-78
2021/12/26 09:07:44;;;;;;;2.50;2.13;;;-5.50;96.30;;;;;;4866762;29;20478;-77
2021/12/26 09:10:13;;;;;;;7.27;3.37;;;-5.50;96.30;;;;;;4879428;29;20212;-77
2021/12/26 09:12:39;;;;;;;1.77;1.67;;;-5.50;96.30;;;;;;4872353;29;20181;-76
2021/12/26 09:15:07;;;;;;;3.30;2.23;;;-5.50;96.30;;;;;;4880411;29;20427;-75
2021/12/26 09:17:33;;;;;;;2.43;1.77;;;-5.40;96.30;;;;;;4880233;29;20501;-76
2021/12/26 09:19:58;;;;;;;5.47;1.87;;;-5.40;96.30;;;;;;4879234;29;20935;-76
2021/12/26 09:22:24;;;;;;;4.37;2.60;;;-5.30;96.30;;;;;;4880770;29;20217;-76
2021/12/26 09:24:51;;;;;;;2.37;1.73;;;-5.20;96.30;;;;;;4880561;29;20189;-75
2021/12/26 09:27:18;;;;;;;2.47;1.60;;;-5.20;96.30;;;;;;4878980;29;20174;-76
2021/12/26 09:29:43;;;;;;;6.93;1.93;;;-5.10;96.30;;;;;;4880371;29;20414;-76
2021/12/26 09:32:09;;;;;;;2.83;1.93;;;-5.10;96.30;;;;;;4880323;29;20449;-76
2021/12/26 09:34:36;;;;;;;5.17;2.47;;;-5.00;96.30;;;;;;4880121;29;20553;-76
2021/12/26 09:37:05;;;;;;;4.23;1.73;;;-5.00;96.30;;;;;;4879973;29;20189;-76
2021/12/26 09:39:31;;;;;;;3.10;1.80;;;-5.00;96.30;;;;;;4878958;29;20434;-75
2021/12/26 09:41:56;;;;;;;5.50;2.00;;;-4.90;96.30;;;;;;4879961;29;20461;-75
2021/12/26 09:44:22;;;;;;;3.03;2.00;;;-4.90;96.30;;;;;;4880356;29;20434;-75
2021/12/26 09:46:48;;;;;;;4.87;2.60;;;-4.90;96.30;;;;;;4879879;29;20655;-75
2021/12/26 09:49:14;;;;;;;9.27;4.63;;;-4.80;96.30;;;;;;4878659;29;20478;-76
2021/12/26 09:51:39;;;;;;;5.87;3.60;;;-4.70;96.30;;;;;;4881533;29;20254;-76
2021/12/26 09:54:07;;;;;;;7.90;2.30;;;-4.70;96.30;;;;;;4879915;29;20436;-75
2021/12/26 09:56:34;;;;;;;3.60;2.03;;;-4.70;96.30;;;;;;4879521;29;20272;-75
2021/12/26 09:59:07;;;;;;;5.17;2.43;;;-4.70;96.30;;;;;;4878468;29;20939;-76
2021/12/26 10:01:40;;;;;;;4.27;2.30;;;-4.60;96.30;;;;;;4879446;29;20473;-76
2021/12/26 10:04:23;;;;;;;6.40;2.23;;;-4.50;96.30;;;;;;4878390;29;20446;-76
2021/12/26 10:07:02;;;;;;;3.63;2.00;;;-4.50;96.30;;;;;;4879423;29;20406;-76
2021/12/26 10:09:28;;;;;;;5.20;2.57;;;-4.40;96.30;;;;;;4879599;29;20915;-75
2021/12/26 10:11:56;;;;;;;6.20;2.27;;;-4.40;96.30;;;;;;4879917;29;20445;-76
2021/12/26 10:14:24;;;;;;;5.70;2.03;;;-4.40;96.30;;;;;;4885675;29;20496;-78
2021/12/26 10:17:00;;;;;;;4.60;2.07;;;-4.30;96.30;;;;;;4890285;29;20499;-76
2021/12/26 10:19:25;;;;;;;3.57;2.30;;;-4.20;96.30;;;;;;4882904;29;20410;-76
2021/12/26 10:21:53;;;;;;;3.37;2.33;;;-4.20;96.30;;;;;;4877960;29;20465;-75
2021/12/26 10:24:25;;;;;;;2.30;1.83;;;-4.20;96.30;;;;;;4879111;29;20170;-76
2021/12/26 10:26:53;;;;;;;4.13;2.03;;;-4.00;96.30;;;;;;4879080;29;20947;-78
2021/12/26 10:29:26;;;;;;;5.87;3.50;;;-3.40;96.30;;;;;;4879164;29;20430;-77
2021/12/26 10:32:04;;;;;;;4.67;2.60;;;-2.60;96.30;;;;;;4878382;29;20587;-78
2021/12/26 10:34:46;;;;;;;5.17;1.60;;;-2.00;96.30;;;;;;4887408;29;20429;-78
2021/12/26 10:37:22;;;;;;;3.70;2.27;;;-1.90;94.50;;;;;;4897538;29;20905;-78
2021/12/26 10:40:00;;;;;;;6.10;2.70;;;-1.40;95.00;;;;;;4896366;29;20425;-78
2021/12/26 10:42:28;;;;;;;5.63;2.40;;;-0.90;93.70;;;;;;4897279;29;20465;-79
2021/12/26 10:45:08;;;;;;;2.90;1.53;;;-0.60;92.50;;;;;;4895293;29;20829;-79
2021/12/26 10:47:36;;;;;;;4.93;2.50;;;-1.00;89.80;;;;;;4896009;29;20872;-79
2021/12/26 10:50:01;;;;;;;2.57;1.27;;;-0.20;90.30;;;;;;4896127;29;20433;-79
2021/12/26 10:52:39;;;;;;;6.30;3.37;;;-0.30;87.30;;;;;;4884464;29;20972;-79
2021/12/26 10:55:15;;;;;;;3.27;2.17;;;-0.30;88.30;;;;;;4876449;29;20190;-79
2021/12/26 10:57:43;;;;;;;8.00;4.80;;;0.00;88.30;;;;;;4860249;29;20800;-79
2021/12/26 11:00:19;;;;;;;3.80;2.07;;;-0.40;88.80;;;;;;4877082;29;20434;-80
2021/12/26 11:02:58;;;;;;;8.73;3.30;;;-0.30;87.60;;;;;;4879373;29;20458;-80
2021/12/26 11:05:45;;;;;;;13.03;6.20;;;0.30;87.60;;;;;;4879019;29;20410;-80
2021/12/26 11:08:13;;;;;;;6.97;4.20;;;0.30;87.40;;;;;;4887835;29;20490;-80
2021/12/26 11:10:45;;;;;;;4.00;2.20;;;0.00;86.80;;;;;;4897300;29;20456;-79
2021/12/26 11:13:22;;;;;;;12.80;6.70;;;-0.30;87.60;;;;;;4898834;29;20568;-80
2021/12/26 11:15:49;;;;;;;6.40;2.93;;;-0.20;87.30;;;;;;4862901;29;20442;-79
2021/12/26 11:18:17;;;;;;;3.97;1.97;;;0.10;86.60;;;;;;4863221;29;20434;-80
2021/12/26 11:20:54;;;;;;;3.47;2.03;;;-0.20;87.60;;;;;;4861404;29;20522;-81
2021/12/26 11:23:26;;;;;;;3.90;1.90;;;-0.50;87.00;;;;;;4893652;29;20432;-81
2021/12/26 11:25:53;;;;;;;4.70;2.07;;;-0.70;87.90;;;;;;4896359;29;20519;-82
2021/12/26 11:28:26;;;;;;;2.93;1.90;;;-0.80;89.20;;;;;;4891586;29;20468;-82
2021/12/26 11:30:53;;;;;;;7.20;1.90;;;-1.40;89.20;;;;;;4882324;29;20449;-80
2021/12/26 11:33:20;;;;;;;4.67;2.43;;;-2.30;91.00;;;;;;4878848;29;20934;-82
2021/12/26 11:35:48;;;;;;;4.20;2.40;;;-2.50;94.00;;;;;;4879667;29;20434;-81
2021/12/26 11:38:18;;;;;;;2.73;1.40;;;-2.90;93.60;;;;;;4879319;29;20432;-81
2021/12/26 11:40:45;;;;;;;4.47;2.23;;;-2.90;93.40;;;;;;4878810;29;20470;-81
2021/12/26 11:43:43;;;;;;;1.80;1.00;;;-3.10;94.50;;;;;;4879112;29;20426;-82
2021/12/26 11:46:29;;;;;;;7.00;1.93;;;-2.90;94.60;;;;;;4878926;29;21061;-81
2021/12/26 11:49:06;;;;;;;2.27;1.83;;;-3.20;96.20;;;;;;4879829;29;20426;-81
2021/12/26 11:51:49;;;;;;;4.13;1.70;;;-3.20;94.60;;;;;;4861418;29;20873;-81
2021/12/26 11:54:28;;;;;;;3.53;1.60;;;-3.40;95.10;;;;;;4861149;29;20514;-80
2021/12/26 11:56:59;;;;;;;3.40;2.27;;;-3.30;96.30;;;;;;4861421;29;20801;-81
2021/12/26 11:59:47;;;;;;;1.50;1.23;;;-3.20;96.30;;;;;;4861199;29;20793;-80
2021/12/26 12:02:32;;;;;;;3.70;2.33;;;-3.20;95.30;;;;;;4862323;29;20483;-79
2021/12/26 12:05:18;;;;;;;3.00;1.60;;;-3.20;96.30;;;;;;4864149;29;20454;-80
2021/12/26 12:08:22;;;;;;;5.30;3.20;;;-3.30;96.10;;;;;;4863737;29;20463;-80
2021/12/26 12:10:54;;;;;;;5.20;3.60;;;-3.10;95.50;;;;;;4808777;29;20532;-79
2021/12/26 12:13:22;;;;;;;5.37;2.73;;;-3.00;95.70;;;;;;4807781;29;20517;-82
2021/12/26 12:15:59;;;;;;;4.10;2.20;;;-3.20;95.30;;;;;;4837071;29;20995;-80
2021/12/26 12:18:26;;;;;;;3.67;2.20;;;-3.30;96.30;;;;;;4863532;29;20414;-79
2021/12/26 12:21:14;;;;;;;7.73;3.47;;;-3.20;96.20;;;;;;4864442;29;20473;-79
2021/12/26 12:24:00;;;;;;;14.60;4.80;;;-3.40;96.00;;;;;;4863728;29;20426;-80
2021/12/26 12:27:06;;;;;;;21.10;10.20;;;-3.50;96.30;;;;;;4862625;29;20931;-79
2021/12/26 12:29:32;;;;;;;21.43;9.43;;;-3.50;96.30;;;;;;4863664;29;20425;-80
2021/12/26 12:32:06;;;;;;;9.63;4.90;;;-3.60;96.30;;;;;;4862905;29;20537;-80
2021/12/26 12:35:04;;;;;;;5.67;3.93;;;-3.50;96.30;;;;;;4863157;29;20257;-80
2021/12/26 12:37:46;;;;;;;6.40;3.40;;;-3.70;96.30;;;;;;4863066;29;20438;-80
2021/12/26 12:40:33;;;;;;;8.37;4.20;;;-3.70;96.30;;;;;;4862511;29;20426;-79
2021/12/26 12:43:18;;;;;;;4.17;2.17;;;-3.50;96.30;;;;;;4863621;29;20434;-80
2021/12/26 12:45:57;;;;;;;8.10;4.17;;;-3.40;96.30;;;;;;4862895;29;20934;-80
2021/12/26 12:48:30;;;;;;;9.80;4.20;;;-3.30;96.30;;;;;;4863032;29;20419;-80
2021/12/26 12:51:13;;;;;;;8.73;4.00;;;-3.20;96.30;;;;;;4863650;29;20443;-79
2021/12/26 12:53:43;;;;;;;11.00;5.70;;;-3.10;96.30;;;;;;4862968;29;20415;-80
2021/12/26 12:56:30;;;;;;;6.93;4.57;;;-3.20;96.30;;;;;;4861792;29;20430;-81
2021/12/26 12:59:18;;;;;;;9.67;4.40;;;-3.40;96.30;;;;;;4862229;29;20419;-80
2021/12/26 13:02:09;;;;;;;3.63;2.70;;;-3.50;96.30;;;;;;4861427;29;20853;-80
2021/12/26 13:04:46;;;;;;;10.57;4.43;;;-3.60;96.30;;;;;;4861147;29;20411;-80
2021/12/26 13:07:19;;;;;;;3.20;1.93;;;-3.70;96.30;;;;;;4860813;29;20438;-80
2021/12/26 13:09:54;;;;;;;7.27;2.60;;;-3.70;96.30;;;;;;4861023;29;20433;-80
2021/12/26 13:12:20;;;;;;;6.07;3.40;;;-3.60;96.30;;;;;;4860751;29;20829;-80
2021/12/26 13:14:55;;;;;;;7.67;3.90;;;-3.70;96.30;;;;;;4861051;29;20506;-80
2021/12/26 13:17:39;;;;;;;2.40;1.40;;;-3.60;96.30;;;;;;4860576;29;20517;-80
2021/12/26 13:20:11;;;;;;;4.10;2.57;;;-3.60;96.30;;;;;;4876277;29;20426;-79
2021/12/26 13:22:50;;;;;;;12.07;4.37;;;-3.60;96.30;;;;;;4860644;29;21055;-80
2021/12/26 13:25:30;;;;;;;6.57;3.00;;;-3.60;96.30;;;;;;4861950;29;20757;-79
2021/12/26 13:27:57;;;;;;;3.20;2.20;;;-3.50;96.30;;;;;;4860432;29;20422;-80
2021/12/26 13:30:24;;;;;;;2.90;1.83;;;-3.60;96.30;;;;;;4880864;29;20417;-79
2021/12/26 13:32:50;;;;;;;2.80;1.47;;;-3.60;96.30;;;;;;4880190;29;20779;-80
2021/12/26 13:35:16;;;;;;;1.90;1.30;;;-3.50;96.30;;;;;;4879008;29;20770;-80
2021/12/26 13:37:42;;;;;;;4.43;2.47;;;-3.50;96.20;;;;;;4879969;29;20957;-79
2021/12/26 13:40:10;;;;;;;3.43;1.93;;;-3.60;96.30;;;;;;4880238;29;20793;-79
2021/12/26 13:42:37;;;;;;;3.87;1.77;;;-3.70;96.30;;;;;;4878740;29;20472;-79
2021/12/26 13:45:04;;;;;;;4.77;1.80;;;-3.60;96.30;;;;;;4878826;29;20922;-80
2021/12/26 13:47:41;;;;;;;6.07;1.90;;;-3.70;96.30;;;;;;4879835;29;20414;-79
2021/12/26 13:50:13;;;;;;;2.03;1.77;;;-3.70;96.30;;;;;;4879973;29;20422;-79
2021/12/26 13:52:38;;;;;;;5.20;2.40;;;-3.70;96.30;;;;;;4878952;29;20410;-79
2021/12/26 13:55:05;;;;;;;4.93;1.90;;;-3.80;96.30;;;;;;4879099;29;20562;-78
2021/12/26 13:57:31;;;;;;;2.53;1.33;;;-3.80;96.30;;;;;;4878846;29;20189;-79
2021/12/26 13:59:57;;;;;;;4.30;1.73;;;-3.80;96.30;;;;;;4880526;29;20424;-79
2021/12/26 14:02:28;;;;;;;2.10;1.57;;;-3.80;96.30;;;;;;4879802;29;20300;-80
2021/12/26 14:04:57;;;;;;;3.53;2.33;;;-3.80;96.30;;;;;;4878761;29;20230;-79
2021/12/26 14:07:30;;;;;;;4.47;2.43;;;-3.80;96.30;;;;;;4882555;29;20474;-80
2021/12/26 14:10:03;;;;;;;8.97;4.20;;;-3.80;96.30;;;;;;4913063;29;20423;-80
2021/12/26 14:12:42;;;;;;;3.47;1.93;;;-3.80;96.30;;;;;;4919359;29;20962;-79
2021/12/26 14:18:09;;;;;;;6.80;4.27;;;-3.90;96.30;;;;;;4898254;29;20409;-79
2021/12/26 14:20:54;;;;;;;3.50;2.10;;;-3.90;96.30;;;;;;4898047;29;20457;-79
2021/12/26 14:23:28;;;;;;;5.40;2.93;;;-3.80;96.30;;;;;;4896977;29;20481;-78
2021/12/26 14:26:00;;;;;;;4.17;2.17;;;-3.80;96.30;;;;;;4897194;29;20429;-79
2021/12/26 14:28:27;;;;;;;6.90;2.60;;;-3.80;96.30;;;;;;4897953;29;20433;-79
2021/12/26 14:30:57;;;;;;;2.67;1.97;;;-3.90;96.30;;;;;;4896628;29;20457;-78
2021/12/26 14:33:30;;;;;;;5.50;3.40;;;-3.90;96.30;;;;;;4897018;29;20422;-79
2021/12/26 14:36:02;;;;;;;6.67;2.17;;;-3.90;96.30;;;;;;4896383;29;20496;-79
2021/12/26 14:38:28;;;;;;;3.53;2.17;;;-3.90;96.30;;;;;;4896610;29;20417;-79
2021/12/26 14:40:57;;;;;;;14.73;3.40;;;-4.00;96.30;;;;;;4896293;29;21003;-80
2021/12/26 14:43:23;;;;;;;7.50;3.00;;;-4.00;96.30;;;;;;4897688;29;20425;-79
2021/12/26 14:45:56;;;;;;;5.33;2.83;;;-4.00;96.30;;;;;;4896054;29;20427;-79
2021/12/26 14:48:42;;;;;;;4.00;2.83;;;-4.00;96.30;;;;;;4896420;29;20465;-79
2021/12/26 14:51:28;;;;;;;5.73;2.30;;;-4.10;96.30;;;;;;4896277;29;20448;-79
2021/12/26 14:54:02;;;;;;;10.50;4.93;;;-4.10;96.30;;;;;;4897287;29;20488;-79
2021/12/26 14:56:46;;;;;;;5.00;3.00;;;-4.10;96.30;;;;;;4897347;29;20420;-80
2021/12/26 14:59:26;;;;;;;6.27;3.27;;;-4.30;96.30;;;;;;4896210;29;20853;-80
2021/12/26 15:02:15;;;;;;;5.60;3.40;;;-4.20;96.30;;;;;;4899022;29;20481;-80
2021/12/26 15:04:43;;;;;;;7.73;4.60;;;-4.20;96.30;;;;;;4898700;29;20457;-79
2021/12/26 15:07:20;;;;;;;4.20;2.70;;;-4.30;96.30;;;;;;4898487;29;20817;-80
2021/12/26 15:09:55;;;;;;;6.93;3.23;;;-4.20;96.30;;;;;;4897369;29;20425;-79
2021/12/26 15:12:42;;;;;;;7.07;3.63;;;-4.20;96.30;;;;;;4895977;29;20448;-79
2021/12/26 15:15:17;;;;;;;10.73;4.10;;;-4.20;96.30;;;;;;4896108;29;20429;-79
2021/12/26 15:18:05;;;;;;;7.77;3.63;;;-4.20;96.30;;;;;;4895735;29;20425;-78
2021/12/26 15:20:39;;;;;;;3.43;2.80;;;-4.30;96.30;;;;;;4892376;29;20434;-80
2021/12/26 15:23:30;;;;;;;6.23;4.10;;;-4.30;96.30;;;;;;4896006;29;20980;-79
2021/12/26 15:26:03;;;;;;;8.10;4.53;;;-4.30;96.30;;;;;;4895819;29;20425;-79
2021/12/26 15:28:35;;;;;;;7.20;4.50;;;-4.30;96.30;;;;;;4897279;29;20406;-79
2021/12/26 15:31:13;;;;;;;8.10;4.93;;;-4.30;96.30;;;;;;4895833;29;20479;-79
2021/12/26 15:33:41;;;;;;;14.10;7.00;;;-4.30;96.30;;;;;;4900891;29;20449;-79
2021/12/26 15:36:10;;;;;;;7.50;4.47;;;-4.20;96.30;;;;;;4898788;29;20449;-80
2021/12/26 15:38:36;;;;;;;9.83;4.70;;;-4.30;96.30;;;;;;4900997;29;20420;-80
2021/12/26 15:41:02;;;;;;;14.37;7.20;;;-4.20;96.30;;;;;;4900749;29;20465;-80
2021/12/26 15:43:28;;;;;;;7.23;3.77;;;-4.30;96.30;;;;;;4899675;29;20664;-80
2021/12/26 15:45:53;;;;;;;5.43;4.30;;;-4.30;96.30;;;;;;4900662;29;20884;-79
2021/12/26 15:48:20;;;;;;;5.70;2.30;;;-4.30;96.30;;;;;;4899591;29;20830;-79
2021/12/26 15:50:45;;;;;;;6.40;3.77;;;-4.20;96.30;;;;;;4899389;29;20197;-79
2021/12/26 15:53:11;;;;;;;7.07;4.00;;;-4.20;96.30;;;;;;4900737;29;20417;-79
2021/12/26 15:55:37;;;;;;;6.10;3.13;;;-4.30;96.30;;;;;;4899344;29;20183;-79
2021/12/26 15:58:02;;;;;;;5.13;3.03;;;-4.30;96.30;;;;;;4900443;29;20256;-80
2021/12/26 16:00:29;;;;;;;4.67;2.73;;;-4.30;96.30;;;;;;4899115;29;20220;-80
2021/12/26 16:02:55;;;;;;;2.23;1.90;;;-4.30;96.30;;;;;;4899240;29;20248;-80
2021/12/26 16:05:21;;;;;;;5.77;2.90;;;-4.30;96.30;;;;;;4899315;29;20551;-81
2021/12/26 16:07:46;;;;;;;3.07;2.10;;;-4.30;96.30;;;;;;4899508;29;20181;-80
2021/12/26 16:10:12;;;;;;;7.07;4.73;;;-4.30;96.30;;;;;;4900086;29;20981;-80
2021/12/26 16:12:38;;;;;;;7.00;3.83;;;-4.30;96.30;;;;;;4899663;29;20177;-80
2021/12/26 16:15:04;;;;;;;8.13;4.07;;;-4.30;96.30;;;;;;4899841;29;20464;-80
2021/12/26 16:17:30;;;;;;;6.10;2.90;;;-4.30;96.30;;;;;;4899411;29;20248;-80
2021/12/26 16:19:56;;;;;;;10.43;4.40;;;-4.30;96.30;;;;;;4899681;29;20925;-79
2021/12/26 16:22:22;;;;;;;7.73;3.70;;;-4.40;96.30;;;;;;4898842;29;20205;-79
2021/12/26 16:24:49;;;;;;;7.07;3.90;;;-4.40;96.30;;;;;;4899248;29;20426;-79
2021/12/26 16:27:18;;;;;;;2.70;1.60;;;-4.40;96.30;;;;;;4899959;29;20424;-79
2021/12/26 16:29:44;;;;;;;4.93;2.70;;;-4.40;96.30;;;;;;4898738;29;20646;-80
2021/12/26 16:32:10;;;;;;;9.07;5.40;;;-4.40;96.30;;;;;;4898744;29;20449;-79
2021/12/26 16:34:39;;;;;;;2.00;1.30;;;-4.40;96.30;;;;;;4898742;29;20494;-80
2021/12/26 16:37:05;;;;;;;12.17;5.53;;;-4.40;96.30;;;;;;4898565;29;20425;-80
2021/12/26 16:39:30;;;;;;;6.70;3.17;;;-4.40;96.30;;;;;;4898683;29;20433;-79
2021/12/26 16:41:58;;;;;;;4.80;3.50;;;-4.50;96.30;;;;;;4899791;29;20533;-80
2021/12/26 16:44:24;;;;;;;7.70;5.40;;;-4.40;96.30;;;;;;4899850;29;20169;-80
2021/12/26 16:46:49;;;;;;;5.33;3.43;;;-4.40;96.30;;;;;;4898376;29;20428;-79
2021/12/26 16:49:15;;;;;;;4.07;2.57;;;-4.50;96.30;;;;;;4897997;29;20264;-79
2021/12/26 16:51:40;;;;;;;6.13;4.00;;;-4.50;96.30;;;;;;4899638;29;20197;-80
2021/12/26 16:54:07;;;;;;;10.87;6.30;;;-4.50;96.30;;;;;;4898321;29;20185;-80
2021/12/26 16:56:32;;;;;;;8.57;5.03;;;-4.50;96.30;;;;;;4898123;29;20189;-80
2021/12/26 16:58:58;;;;;;;5.60;3.03;;;-4.50;96.30;;;;;;4898479;29;20421;-79
2021/12/26 17:01:24;;;;;;;6.63;2.93;;;-4.50;96.30;;;;;;4897993;29;20217;-79